createdAt,value
2019-02-12T00:00:43.350Z,99.99
2019-02-12T00:01:43.347Z,99.99
2019-02-12T00:02:43.295Z,99.99
2019-02-12T00:03:43.313Z,99.99
2019-02-12T00:04:43.345Z,99.99
2019-02-12T00:05:43.303Z,99.99
2019-02-12T00:06:43.284Z,99.99
2019-02-12T00:07:43.258Z,99.99
2019-02-12T00:08:43.242Z,99.99
2019-02-12T00:09:43.247Z,99.99
2019-02-12T00:10:43.210Z,99.99
2019-02-12T00:11:43.218Z,99.99
2019-02-12T00:12:43.195Z,99.99
2019-02-12T00:13:43.202Z,99.99
2019-02-12T00:14:43.191Z,99.99
2019-02-12T00:15:43.170Z,99.99
2019-02-12T00:16:43.160Z,99.99
2019-02-12T00:17:43.141Z,99.99
2019-02-12T00:18:43.176Z,99.99
2019-02-12T00:19:51.944Z,99.99
2019-02-12T00:21:48.204Z,99.99
2019-02-12T00:22:47.661Z,99.99
2019-02-12T00:23:47.769Z,99.99
2019-02-12T00:24:47.830Z,99.99
2019-02-12T00:25:47.541Z,99.99
2019-02-12T00:26:47.589Z,99.99
2019-02-12T00:27:47.588Z,99.99
2019-02-12T00:28:47.502Z,99.99
2019-02-12T00:29:47.525Z,99.99
2019-02-12T00:30:47.516Z,99.99
2019-02-12T00:31:47.533Z,99.99
2019-02-12T00:32:47.492Z,99.99
2019-02-12T00:33:47.449Z,99.99
2019-02-12T00:34:48.059Z,99.99
2019-02-12T00:35:47.479Z,99.99
2019-02-12T00:36:47.410Z,99.99
2019-02-12T00:37:47.405Z,99.99
2019-02-12T00:38:47.420Z,99.99
2019-02-12T00:39:47.459Z,99.99
2019-02-12T00:40:47.371Z,99.99
2019-02-12T00:41:47.401Z,99.99
2019-02-12T00:42:47.349Z,99.99
2019-02-12T00:43:47.340Z,99.99
2019-02-12T00:44:47.361Z,99.99
2019-02-12T00:45:47.346Z,99.99
2019-02-12T00:46:47.319Z,99.99
2019-02-12T00:47:47.307Z,99.99
2019-02-12T00:48:47.331Z,99.99
2019-02-12T00:49:47.302Z,99.99
2019-02-12T00:50:47.281Z,99.99
2019-02-12T00:51:47.291Z,99.99
2019-02-12T00:52:47.269Z,99.99
2019-02-12T00:53:47.225Z,99.99
2019-02-12T00:54:47.262Z,99.99
2019-02-12T00:55:47.210Z,99.99
2019-02-12T00:56:47.229Z,99.99
2019-02-12T00:57:47.210Z,99.99
2019-02-12T00:58:47.204Z,99.99
2019-02-12T00:59:47.191Z,99.99
2019-02-12T01:00:47.229Z,99.99
2019-02-12T01:01:47.135Z,99.99
2019-02-12T01:02:47.153Z,99.99
2019-02-12T01:03:47.114Z,99.99
2019-02-12T01:04:47.138Z,99.99
2019-02-12T01:05:47.088Z,99.99
2019-02-12T01:06:47.098Z,99.99
2019-02-12T01:07:47.084Z,99.99
2019-02-12T01:08:47.066Z,99.99
2019-02-12T01:09:47.081Z,99.99
2019-02-12T01:10:47.099Z,99.99
2019-02-12T01:11:47.037Z,99.99
2019-02-12T01:12:47.046Z,99.99
2019-02-12T01:13:47.035Z,99.99
2019-02-12T01:14:46.996Z,99.99
2019-02-12T01:15:46.994Z,99.99
2019-02-12T01:16:46.986Z,99.99
2019-02-12T01:17:47.029Z,99.99
2019-02-12T01:18:46.961Z,99.99
2019-02-12T01:19:46.981Z,99.99
2019-02-12T01:20:46.944Z,99.99
2019-02-12T01:21:46.950Z,99.99
2019-02-12T01:22:46.950Z,99.99
2019-02-12T01:23:46.927Z,99.99
2019-02-12T01:24:46.915Z,99.99
2019-02-12T01:25:46.901Z,99.99
2019-02-12T01:26:46.887Z,99.99
2019-02-12T01:27:46.854Z,99.99
2019-02-12T01:28:46.845Z,99.99
2019-02-12T01:29:46.828Z,99.99
2019-02-12T01:30:46.821Z,99.99
2019-02-12T01:31:46.827Z,99.99
2019-02-12T01:32:46.837Z,99.99
2019-02-12T01:33:46.837Z,99.99
2019-02-12T01:34:46.808Z,99.99
2019-02-12T01:35:46.756Z,99.99
2019-02-12T01:36:46.747Z,99.99
2019-02-12T01:37:46.771Z,99.99
2019-02-12T01:38:46.816Z,99.99
2019-02-12T01:39:46.751Z,99.99
2019-02-12T01:40:46.706Z,99.99
2019-02-12T01:41:46.696Z,99.99
2019-02-12T01:42:46.695Z,99.99
2019-02-12T01:43:46.700Z,99.99
2019-02-12T01:44:46.710Z,99.99
2019-02-12T01:45:46.644Z,99.99
2019-02-12T01:46:46.709Z,99.99
2019-02-12T01:47:46.739Z,99.99
2019-02-12T01:48:46.664Z,99.99
2019-02-12T01:49:46.650Z,99.99
2019-02-12T01:50:46.638Z,99.99
2019-02-12T01:51:46.576Z,99.99
2019-02-12T01:52:46.563Z,99.99
2019-02-12T01:53:46.569Z,99.99
2019-02-12T01:54:46.566Z,99.99
2019-02-12T01:55:46.532Z,99.99
2019-02-12T01:56:46.572Z,99.99
2019-02-12T01:57:46.508Z,99.99
2019-02-12T01:58:55.623Z,99.99
2019-02-12T02:00:40.669Z,99.99
2019-02-12T02:01:40.066Z,99.99
2019-02-12T02:02:39.990Z,99.99
2019-02-12T02:03:39.992Z,99.99
2019-02-12T02:04:40.434Z,99.99
2019-02-12T02:05:39.891Z,99.99
2019-02-12T02:06:39.865Z,99.99
2019-02-12T02:07:39.832Z,99.99
2019-02-12T02:08:39.838Z,99.99
2019-02-12T02:09:39.863Z,99.99
2019-02-12T02:10:39.820Z,99.99
2019-02-12T02:11:39.808Z,99.99
2019-02-12T02:12:39.766Z,99.99
2019-02-12T02:13:39.753Z,99.99
2019-02-12T02:14:39.763Z,99.99
2019-02-12T02:15:39.773Z,99.99
2019-02-12T02:16:39.755Z,99.99
2019-02-12T02:17:39.804Z,99.99
2019-02-12T02:18:39.701Z,99.99
2019-02-12T02:19:39.698Z,99.99
2019-02-12T02:20:39.756Z,99.99
2019-02-12T02:21:44.094Z,99.99
2019-02-12T02:22:39.680Z,99.99
2019-02-12T02:23:39.756Z,99.99
2019-02-12T02:24:39.743Z,99.99
2019-02-12T02:25:39.656Z,99.99
2019-02-12T02:26:39.623Z,99.99
2019-02-12T02:27:39.613Z,99.99
2019-02-12T02:28:39.636Z,99.99
2019-02-12T02:29:39.582Z,99.99
2019-02-12T02:30:39.572Z,99.99
2019-02-12T02:31:39.650Z,99.99
2019-02-12T02:32:39.590Z,99.99
2019-02-12T02:33:39.574Z,99.99
2019-02-12T02:34:39.555Z,99.99
2019-02-12T02:35:39.522Z,99.99
2019-02-12T02:36:39.533Z,99.99
2019-02-12T02:37:39.486Z,99.99
2019-02-12T02:38:39.524Z,99.99
2019-02-12T02:39:39.488Z,99.99
2019-02-12T02:40:39.510Z,99.99
2019-02-12T02:41:39.472Z,99.99
2019-02-12T02:42:39.477Z,99.99
2019-02-12T02:43:39.457Z,99.99
2019-02-12T02:44:39.457Z,99.99
2019-02-12T02:45:39.406Z,99.99
2019-02-12T02:46:39.403Z,99.99
2019-02-12T02:47:39.403Z,99.99
2019-02-12T02:48:39.417Z,99.99
2019-02-12T02:49:39.400Z,99.99
2019-02-12T02:50:39.367Z,99.99
2019-02-12T02:51:39.333Z,99.99
2019-02-12T02:52:39.380Z,99.99
2019-02-12T02:53:39.310Z,99.99
2019-02-12T02:54:39.324Z,99.99
2019-02-12T02:55:39.309Z,99.99
2019-02-12T03:14:04.914Z,99.99
2019-02-12T03:15:04.922Z,99.99
2019-02-12T03:16:04.808Z,99.99
2019-02-12T03:17:04.779Z,99.99
2019-02-12T03:18:04.770Z,99.99
2019-02-12T03:19:04.749Z,99.99
2019-02-12T03:20:04.752Z,99.99
2019-02-12T03:21:04.870Z,99.99
2019-02-12T03:22:04.711Z,99.99
2019-02-12T03:23:04.702Z,99.99
2019-02-12T03:24:04.669Z,99.99
2019-02-12T03:25:04.673Z,99.99
2019-02-12T03:26:04.661Z,99.99
2019-02-12T03:27:04.628Z,99.99
2019-02-12T03:28:04.625Z,99.99
2019-02-12T03:29:04.620Z,99.99
2019-02-12T03:30:04.605Z,99.99
2019-02-12T03:31:04.601Z,99.99
2019-02-12T03:32:04.589Z,99.99
2019-02-12T03:33:04.568Z,99.99
2019-02-12T03:34:04.592Z,99.99
2019-02-12T03:35:04.562Z,99.99
2019-02-12T03:36:04.523Z,99.99
2019-02-12T03:37:04.506Z,99.99
2019-02-12T03:38:04.496Z,99.99
2019-02-12T03:39:04.502Z,99.99
2019-02-12T03:40:04.481Z,99.99
2019-02-12T03:41:04.492Z,99.99
2019-02-12T03:42:04.485Z,99.99
2019-02-12T03:43:04.464Z,99.99
2019-02-12T03:44:04.443Z,99.99
2019-02-12T03:45:04.409Z,99.99
2019-02-12T03:46:04.408Z,99.99
2019-02-12T03:47:04.422Z,99.99
2019-02-12T03:48:04.380Z,99.99
2019-02-12T03:49:04.374Z,99.99
2019-02-12T03:50:04.373Z,99.99
2019-02-12T03:51:04.346Z,99.99
2019-02-12T03:52:12.580Z,99.99
2019-02-12T03:53:04.326Z,99.99
2019-02-12T03:54:04.309Z,99.99
2019-02-12T03:55:04.375Z,99.99
2019-02-12T03:56:04.314Z,99.99
2019-02-12T03:57:04.303Z,99.99
2019-02-12T03:58:04.284Z,99.99
2019-02-12T03:59:04.268Z,99.99
2019-02-12T04:00:04.268Z,99.99
2019-02-12T04:01:04.222Z,99.99
2019-02-12T04:02:04.243Z,99.99
2019-02-12T04:03:04.243Z,99.99
2019-02-12T04:04:13.098Z,99.99
2019-02-12T04:06:08.925Z,99.99
2019-02-12T04:07:08.645Z,99.99
2019-02-12T04:08:18.480Z,99.99
2019-02-12T04:10:14.218Z,99.99
2019-02-12T04:11:13.907Z,99.99
2019-02-12T04:12:13.924Z,99.99
2019-02-12T04:13:13.922Z,99.99
2019-02-12T04:14:14.053Z,99.99
2019-02-12T04:15:13.876Z,99.99
2019-02-12T04:16:13.853Z,99.99
2019-02-12T04:17:13.920Z,99.99
2019-02-12T04:18:13.854Z,99.99
2019-02-12T04:19:13.883Z,99.99
2019-02-12T04:20:13.837Z,99.99
2019-02-12T04:21:13.806Z,99.99
2019-02-12T04:22:22.133Z,99.99
2019-02-12T04:23:13.821Z,99.99
2019-02-12T04:24:13.765Z,99.99
2019-02-12T04:25:13.772Z,99.99
2019-02-12T04:26:13.739Z,99.99
2019-02-12T04:27:13.769Z,99.99
2019-02-12T04:28:13.729Z,99.99
2019-02-12T04:29:13.695Z,99.99
2019-02-12T04:30:13.696Z,99.99
2019-02-12T04:31:13.670Z,99.99
2019-02-12T04:32:13.666Z,99.99
2019-02-12T04:33:13.697Z,99.99
2019-02-12T04:34:13.642Z,99.99
2019-02-12T04:35:13.645Z,99.99
2019-02-12T04:36:13.623Z,99.99
2019-02-12T04:37:13.605Z,99.99
2019-02-12T04:38:13.602Z,99.99
2019-02-12T04:39:13.590Z,99.99
2019-02-12T04:40:13.592Z,99.99
2019-02-12T04:41:13.552Z,99.99
2019-02-12T04:42:13.591Z,99.99
2019-02-12T04:43:13.530Z,99.99
2019-02-12T04:44:13.552Z,99.99
2019-02-12T04:45:13.575Z,99.99
2019-02-12T04:46:13.544Z,99.99
2019-02-12T04:47:13.493Z,99.99
2019-02-12T04:48:13.471Z,99.99
2019-02-12T04:49:13.473Z,99.99
2019-02-12T04:50:13.467Z,99.99
2019-02-12T04:51:13.479Z,99.99
2019-02-12T04:52:13.431Z,99.99
2019-02-12T04:53:13.439Z,99.99
2019-02-12T04:54:13.414Z,99.99
2019-02-12T04:55:13.395Z,99.99
2019-02-12T04:56:13.417Z,99.99
2019-02-12T04:57:13.369Z,99.99
2019-02-12T04:58:13.367Z,99.99
2019-02-12T04:59:13.343Z,99.99
2019-02-12T05:00:13.360Z,99.99
2019-02-12T05:01:13.346Z,99.99
2019-02-12T05:02:13.307Z,99.99
2019-02-12T05:03:13.311Z,99.99
2019-02-12T05:04:13.315Z,99.99
2019-02-12T05:05:13.308Z,99.99
2019-02-12T05:06:13.267Z,99.99
2019-02-12T05:07:13.270Z,99.99
2019-02-12T05:08:13.277Z,99.99
2019-02-12T05:09:13.224Z,99.99
2019-02-12T05:10:13.212Z,99.99
2019-02-12T05:11:13.225Z,99.99
2019-02-12T05:12:13.188Z,99.99
2019-02-12T05:13:13.170Z,99.99
2019-02-12T05:14:13.177Z,99.99
2019-02-12T05:15:13.185Z,99.99
2019-02-12T05:16:13.172Z,99.99
2019-02-12T05:17:13.157Z,99.99
2019-02-12T05:18:13.136Z,99.99
2019-02-12T05:19:13.115Z,99.99
2019-02-12T05:20:13.097Z,99.99
2019-02-12T05:21:13.090Z,99.99
2019-02-12T05:22:13.100Z,99.99
2019-02-12T05:23:13.160Z,99.99
2019-02-12T05:24:13.062Z,99.99
2019-02-12T05:25:13.042Z,99.99
2019-02-12T05:26:13.040Z,99.99
2019-02-12T05:27:13.062Z,99.99
2019-02-12T05:28:13.015Z,99.99
2019-02-12T05:29:13.008Z,99.99
2019-02-12T05:30:13.016Z,99.99
2019-02-12T05:31:12.986Z,99.99
2019-02-12T05:32:12.955Z,99.99
2019-02-12T05:33:12.951Z,99.99
2019-02-12T05:34:12.921Z,99.99
2019-02-12T05:35:12.902Z,99.99
2019-02-12T05:36:12.894Z,99.99
2019-02-12T05:37:12.889Z,99.99
2019-02-12T05:38:12.907Z,99.99
2019-02-12T05:39:12.862Z,99.99
2019-02-12T05:40:12.853Z,99.99
2019-02-12T05:41:12.839Z,99.99
2019-02-12T05:42:12.854Z,99.99
2019-02-12T05:43:12.806Z,99.99
2019-02-12T05:44:12.798Z,99.99
2019-02-12T05:45:12.876Z,99.99
2019-02-12T05:46:12.797Z,99.99
2019-02-12T05:47:12.782Z,99.99
2019-02-12T05:48:12.742Z,99.99
2019-02-12T05:49:12.740Z,99.99
2019-02-12T05:50:12.721Z,99.99
2019-02-12T05:51:12.757Z,99.99
2019-02-12T05:52:12.726Z,99.99
2019-02-12T05:53:12.708Z,99.99
2019-02-12T05:54:12.670Z,99.99
2019-02-12T05:55:12.671Z,99.99
2019-02-12T05:56:12.661Z,99.99
2019-02-12T05:57:12.648Z,99.99
2019-02-12T05:58:12.640Z,99.99
2019-02-12T05:59:12.671Z,99.99
2019-02-12T06:00:12.645Z,99.99
2019-02-12T06:01:12.594Z,99.99
2019-02-12T06:02:12.585Z,99.99
2019-02-12T06:03:12.580Z,99.99
2019-02-12T06:04:12.585Z,99.99
2019-02-12T06:05:12.542Z,99.99
2019-02-12T06:06:12.526Z,99.99
2019-02-12T06:07:12.541Z,99.99
2019-02-12T06:08:12.505Z,99.99
2019-02-12T06:09:12.516Z,99.99
2019-02-12T06:10:12.506Z,99.99
2019-02-12T06:11:12.483Z,99.99
2019-02-12T06:12:12.462Z,99.99
2019-02-12T06:13:12.476Z,99.99
2019-02-12T06:14:12.447Z,99.99
2019-02-12T06:15:12.437Z,99.99
2019-02-12T06:16:12.435Z,99.99
2019-02-12T06:17:12.398Z,99.99
2019-02-12T06:18:12.393Z,99.99
2019-02-12T06:19:12.377Z,99.99
2019-02-12T06:20:12.387Z,99.99
2019-02-12T06:21:12.355Z,99.99
2019-02-12T06:22:12.373Z,99.99
2019-02-12T06:23:12.370Z,99.99
2019-02-12T06:24:12.314Z,99.99
2019-02-12T06:25:12.332Z,99.99
2019-02-12T06:26:12.334Z,99.99
2019-02-12T06:27:12.277Z,99.99
2019-02-12T06:28:12.277Z,99.99
2019-02-12T06:29:12.264Z,99.99
2019-02-12T06:30:12.270Z,99.99
2019-02-12T06:31:12.248Z,99.99
2019-02-12T06:32:12.272Z,99.99
2019-02-12T06:33:12.259Z,99.99
2019-02-12T06:34:12.205Z,99.99
2019-02-12T06:35:12.205Z,99.99
2019-02-12T06:36:12.168Z,99.99
2019-02-12T06:37:12.190Z,99.99
2019-02-12T06:38:12.202Z,99.99
2019-02-12T06:39:12.164Z,99.99
2019-02-12T06:40:12.122Z,99.99
2019-02-12T06:41:12.153Z,99.99
2019-02-12T06:42:12.134Z,99.99
2019-02-12T06:43:12.074Z,99.99
2019-02-12T06:44:12.176Z,99.99
2019-02-12T06:45:12.079Z,99.99
2019-02-12T06:46:12.046Z,99.99
2019-02-12T06:47:12.058Z,99.99
2019-02-12T06:48:12.039Z,99.99
2019-02-12T06:49:12.005Z,99.99
2019-02-12T06:50:11.996Z,99.99
2019-02-12T06:51:12.047Z,99.99
2019-02-12T06:52:11.981Z,99.99
2019-02-12T06:53:12.795Z,99.99
2019-02-12T06:54:11.938Z,99.99
2019-02-12T06:55:11.978Z,99.99
2019-02-12T06:56:11.931Z,99.99
2019-02-12T06:57:11.924Z,99.99
2019-02-12T06:58:12.084Z,99.99
2019-02-12T06:59:11.885Z,99.99
2019-02-12T07:00:11.866Z,99.99
2019-02-12T07:01:11.863Z,99.99
2019-02-12T07:02:11.867Z,99.99
2019-02-12T07:03:11.915Z,99.99
2019-02-12T07:04:11.869Z,99.99
2019-02-12T07:05:11.822Z,99.99
2019-02-12T07:06:11.824Z,99.99
2019-02-12T07:07:11.868Z,99.99
2019-02-12T07:08:11.817Z,99.99
2019-02-12T07:09:11.797Z,99.99
2019-02-12T07:10:11.751Z,99.99
2019-02-12T07:11:11.746Z,99.99
2019-02-12T07:12:11.731Z,99.99
2019-02-12T07:13:11.732Z,99.99
2019-02-12T07:14:11.759Z,99.99
2019-02-12T07:15:11.700Z,99.99
2019-02-12T07:16:11.680Z,99.99
2019-02-12T07:17:11.713Z,99.99
2019-02-12T07:18:11.691Z,99.99
2019-02-12T07:19:11.669Z,99.99
2019-02-12T07:20:11.644Z,99.99
2019-02-12T07:21:11.696Z,99.99
2019-02-12T07:22:11.611Z,99.99
2019-02-12T07:23:11.633Z,99.99
2019-02-12T07:24:11.588Z,99.99
2019-02-12T07:25:11.597Z,99.99
2019-02-12T07:26:11.585Z,99.99
2019-02-12T07:29:18.216Z,99.99
2019-02-12T07:30:18.016Z,99.99
2019-02-12T07:32:23.548Z,99.99
2019-02-12T07:33:22.651Z,99.99
2019-02-12T07:34:22.574Z,99.99
2019-02-12T07:35:23.174Z,99.99
2019-02-12T07:36:22.722Z,99.99
2019-02-12T07:37:23.114Z,99.99
2019-02-12T07:38:23.043Z,99.99
2019-02-12T07:39:23.493Z,99.99
2019-02-12T07:42:03.138Z,99.99
2019-02-12T07:43:03.658Z,99.99
2019-02-12T07:44:02.826Z,99.99
2019-02-12T07:45:03.141Z,99.99
2019-02-12T07:46:02.737Z,99.99
2019-02-12T07:47:05.110Z,99.99
2019-02-12T07:48:02.734Z,99.99
2019-02-12T07:49:02.740Z,99.99
2019-02-12T07:50:02.675Z,99.99
2019-02-12T07:51:02.586Z,99.99
2019-02-12T07:52:02.586Z,99.99
2019-02-12T07:53:02.600Z,99.99
2019-02-12T07:54:02.629Z,99.99
2019-02-12T07:55:02.579Z,99.99
2019-02-12T07:56:02.579Z,99.99
2019-02-12T07:57:02.521Z,99.99
2019-02-12T07:58:02.533Z,99.99
2019-02-12T07:59:02.615Z,99.99
2019-02-12T08:00:02.470Z,99.99
2019-02-12T08:01:02.497Z,99.99
2019-02-12T08:02:02.499Z,99.99
2019-02-12T08:03:02.456Z,99.99
2019-02-12T08:04:02.459Z,99.99
2019-02-12T08:05:02.418Z,99.99
2019-02-12T08:06:02.412Z,99.99
2019-02-12T08:07:02.388Z,99.99
2019-02-12T08:08:02.379Z,99.99
2019-02-12T08:09:02.368Z,99.99
2019-02-12T08:10:02.374Z,99.99
2019-02-12T08:11:02.358Z,99.99
2019-02-12T08:12:02.335Z,99.99
2019-02-12T08:13:02.316Z,99.99
2019-02-12T08:14:02.325Z,99.99
2019-02-12T08:15:02.304Z,99.99
2019-02-12T08:16:02.298Z,99.99
2019-02-12T08:17:02.293Z,99.99
2019-02-12T08:18:02.262Z,99.99
2019-02-12T08:19:02.252Z,99.99
2019-02-12T08:20:02.241Z,99.99
2019-02-12T08:21:02.250Z,99.99
2019-02-12T08:22:02.228Z,99.99
2019-02-12T08:23:02.209Z,99.99
2019-02-12T08:24:02.220Z,99.99
2019-02-12T08:25:02.225Z,99.99
2019-02-12T08:26:02.194Z,99.99
2019-02-12T08:27:02.184Z,99.99
2019-02-12T08:28:02.187Z,99.99
2019-02-12T08:29:02.145Z,99.99
2019-02-12T08:30:02.133Z,99.99
2019-02-12T08:31:02.153Z,99.99
2019-02-12T08:32:02.126Z,99.99
2019-02-12T08:33:02.098Z,99.99
2019-02-12T08:34:02.082Z,99.99
2019-02-12T08:35:02.092Z,99.99
2019-02-12T08:36:02.063Z,99.99
2019-02-12T08:37:02.071Z,99.99
2019-02-12T08:38:02.061Z,99.99
2019-02-12T08:39:02.065Z,99.99
2019-02-12T08:40:02.029Z,99.99
2019-02-12T08:41:02.154Z,99.99
2019-02-12T08:42:01.993Z,99.99
2019-02-12T08:43:01.988Z,99.99
2019-02-12T08:44:02.059Z,99.99
2019-02-12T08:45:02.002Z,99.99
2019-02-12T08:46:01.957Z,99.99
2019-02-12T08:47:01.958Z,99.99
2019-02-12T08:48:01.935Z,99.99
2019-02-12T08:49:01.930Z,99.99
2019-02-12T08:50:01.939Z,99.99
2019-02-12T08:51:01.896Z,99.99
2019-02-12T08:52:01.885Z,99.99
2019-02-12T08:53:01.874Z,99.99
2019-02-12T08:54:01.878Z,99.99
2019-02-12T08:55:01.871Z,99.99
2019-02-12T08:56:01.841Z,99.99
2019-02-12T08:57:01.860Z,99.99
2019-02-12T08:58:01.876Z,99.99
2019-02-12T08:59:01.888Z,99.99
2019-02-12T09:00:03.575Z,99.99
2019-02-12T09:01:10.964Z,99.99
2019-02-12T09:03:15.456Z,99.99
2019-02-12T09:04:15.129Z,99.99
2019-02-12T09:06:10.741Z,99.99
2019-02-12T09:07:10.703Z,99.99
2019-02-12T09:08:10.770Z,99.99
2019-02-12T09:09:10.915Z,99.99
2019-02-12T09:10:10.668Z,99.99
2019-02-12T09:11:10.676Z,99.99
2019-02-12T09:12:10.682Z,99.99
2019-02-12T09:13:10.638Z,99.99
2019-02-12T09:14:10.632Z,99.99
2019-02-12T09:15:10.633Z,99.99
2019-02-12T09:16:10.652Z,99.99
2019-02-12T09:17:10.617Z,99.99
2019-02-12T09:18:10.630Z,99.99
2019-02-12T09:19:10.587Z,99.99
2019-02-12T09:20:10.600Z,99.99
2019-02-12T09:21:10.573Z,99.99
2019-02-12T09:22:10.562Z,99.99
2019-02-12T09:23:10.552Z,99.99
2019-02-12T09:24:10.533Z,99.99
2019-02-12T09:25:10.513Z,99.99
2019-02-12T09:26:10.505Z,99.99
2019-02-12T09:27:10.528Z,99.99
2019-02-12T09:28:10.501Z,99.99
2019-02-12T09:29:10.506Z,99.99
2019-02-12T09:30:10.472Z,99.99
2019-02-12T09:31:10.455Z,99.99
2019-02-12T09:32:10.455Z,99.99
2019-02-12T09:33:10.460Z,99.99
2019-02-12T09:34:10.474Z,99.99
2019-02-12T09:35:10.474Z,99.99
2019-02-12T09:36:10.395Z,99.99
2019-02-12T09:37:10.382Z,99.99
2019-02-12T09:38:10.374Z,99.99
2019-02-12T09:39:10.399Z,99.99
2019-02-12T09:40:18.580Z,99.99
2019-02-12T09:41:10.375Z,99.99
2019-02-12T09:42:10.368Z,99.99
2019-02-12T09:43:10.346Z,99.99
2019-02-12T09:44:10.329Z,99.99
2019-02-12T09:45:10.314Z,99.99
2019-02-12T09:46:10.349Z,99.99
2019-02-12T09:47:10.313Z,99.99
2019-02-12T09:48:10.280Z,99.99
2019-02-12T09:49:10.261Z,99.68
2019-02-12T09:50:10.281Z,99.68
2019-02-12T09:51:10.275Z,99.87
2019-02-12T09:52:10.275Z,99.87
2019-02-12T09:53:10.257Z,99.77
2019-02-12T09:54:10.224Z,99.49
2019-02-12T09:55:10.225Z,99.87
2019-02-12T09:56:10.222Z,99.49
2019-02-12T09:57:10.191Z,98.92
2019-02-12T09:58:10.197Z,99.01
2019-02-12T09:59:10.166Z,99.35
2019-02-12T10:00:10.149Z,99.16
2019-02-12T10:01:10.166Z,99.35
2019-02-12T10:02:10.131Z,99.91
2019-02-12T10:03:10.139Z,98.97
2019-02-12T10:04:10.119Z,98.68
2019-02-12T10:05:10.133Z,98.87
2019-02-12T10:06:10.121Z,97.92
2019-02-12T10:07:10.118Z,97.55
2019-02-12T10:08:10.082Z,98.11
2019-02-12T10:09:10.148Z,97.83
2019-02-12T10:10:10.066Z,97.83
2019-02-12T10:11:10.048Z,97.55
2019-02-12T10:12:10.028Z,98.02
2019-02-12T10:13:10.021Z,97.26
2019-02-12T10:14:10.025Z,97.26
2019-02-12T10:15:10.027Z,96.59
2019-02-12T10:16:09.983Z,96.22
2019-02-12T10:17:10.004Z,96.12
2019-02-12T10:18:09.982Z,96.12
2019-02-12T10:19:09.980Z,95.46
2019-02-12T10:20:10.018Z,94.89
2019-02-12T10:21:09.968Z,95.55
2019-02-12T10:22:09.950Z,95.51
2019-02-12T10:23:09.953Z,95.31
2019-02-12T10:24:19.362Z,94.46
2019-02-12T10:25:09.926Z,94.56
2019-02-12T10:26:09.951Z,94.56
2019-02-12T10:27:09.962Z,94.18
2019-02-12T10:28:09.919Z,93.89
2019-02-12T10:29:09.903Z,93.80
2019-02-12T10:30:09.854Z,93.89
2019-02-12T10:31:09.900Z,93.41
2019-02-12T10:32:09.829Z,93.60
2019-02-12T10:33:09.933Z,92.75
2019-02-12T10:34:10.628Z,92.28
2019-02-12T10:35:09.880Z,91.89
2019-02-12T10:36:09.854Z,92.28
2019-02-12T10:37:09.861Z,92.75
2019-02-12T10:39:09.870Z,91.89
2019-02-12T10:40:09.822Z,91.99
2019-02-12T10:41:09.803Z,91.80
2019-02-12T10:42:09.734Z,92.09
2019-02-12T10:43:09.784Z,91.99
2019-02-12T10:44:09.732Z,92.09
2019-02-12T10:45:09.742Z,91.71
2019-02-12T10:46:09.714Z,91.71
2019-02-12T10:47:09.727Z,91.99
2019-02-12T10:48:09.727Z,92.94
2019-02-12T10:49:09.680Z,92.75
2019-02-12T10:50:09.693Z,92.28
2019-02-12T10:51:09.715Z,92.18
2019-02-12T10:52:09.656Z,91.80
2019-02-12T10:53:09.730Z,91.42
2019-02-12T10:54:11.487Z,91.28
2019-02-12T10:55:09.674Z,90.66
2019-02-12T10:56:09.701Z,91.04
2019-02-12T10:57:09.670Z,90.95
2019-02-12T10:58:09.619Z,91.19
2019-02-12T10:59:09.755Z,91.47
2019-02-12T11:00:09.633Z,91.47
2019-02-12T11:01:09.635Z,91.28
2019-02-12T11:02:09.652Z,91.38
2019-02-12T11:03:09.544Z,91.28
2019-02-12T11:04:09.556Z,91.19
2019-02-12T11:05:09.544Z,90.99
2019-02-12T11:06:09.581Z,90.61
2019-02-12T11:07:09.513Z,91.09
2019-02-12T11:08:09.572Z,90.90
2019-02-12T11:09:09.493Z,90.61
2019-02-12T11:10:09.484Z,90.52
2019-02-12T11:11:09.484Z,90.52
2019-02-12T11:12:09.549Z,90.99
2019-02-12T11:13:09.490Z,90.42
2019-02-12T11:14:09.452Z,89.95
2019-02-12T11:15:09.439Z,89.57
2019-02-12T11:16:09.466Z,88.81
2019-02-12T11:17:09.421Z,89.38
2019-02-12T11:18:09.412Z,89.67
2019-02-12T11:19:09.424Z,89.38
2019-02-12T11:20:09.425Z,89.00
2019-02-12T11:21:12.062Z,90.14
2019-02-12T11:22:09.388Z,90.42
2019-02-12T11:23:10.922Z,89.76
2019-02-12T11:24:09.364Z,89.57
2019-02-12T11:25:09.370Z,89.57
2019-02-12T11:26:09.344Z,89.43
2019-02-12T11:27:09.362Z,89.47
2019-02-12T11:28:09.324Z,89.24
2019-02-12T11:29:09.346Z,89.76
2019-02-12T11:30:09.306Z,89.67
2019-02-12T11:31:09.308Z,89.28
2019-02-12T11:32:09.316Z,89.57
2019-02-12T11:33:09.276Z,88.71
2019-02-12T11:34:09.287Z,88.71
2019-02-12T11:35:09.262Z,87.86
2019-02-12T11:36:09.291Z,87.95
2019-02-12T11:37:09.238Z,88.34
2019-02-12T11:38:09.243Z,88.05
2019-02-12T11:39:09.225Z,88.24
2019-02-12T11:40:09.268Z,87.90
2019-02-12T11:41:09.200Z,87.62
2019-02-12T11:42:09.199Z,86.15
2019-02-12T11:43:09.198Z,85.96
2019-02-12T11:44:09.215Z,85.20
2019-02-12T11:45:09.228Z,86.34
2019-02-12T11:46:09.197Z,85.49
2019-02-12T11:47:09.157Z,85.96
2019-02-12T11:48:09.135Z,86.72
2019-02-12T11:49:09.137Z,87.10
2019-02-12T11:50:09.168Z,86.63
2019-02-12T11:51:09.147Z,86.63
2019-02-12T11:52:09.162Z,86.91
2019-02-12T11:53:09.136Z,87.10
2019-02-12T11:54:09.105Z,86.72
2019-02-12T11:55:09.092Z,86.72
2019-02-12T11:56:09.095Z,86.72
2019-02-12T11:57:09.116Z,86.38
2019-02-12T11:58:09.057Z,85.91
2019-02-12T11:59:09.049Z,85.34
2019-02-12T12:00:09.071Z,85.43
2019-02-12T12:01:09.034Z,85.62
2019-02-12T12:02:09.050Z,85.15
2019-02-12T12:03:09.047Z,84.67
2019-02-12T12:04:09.013Z,84.39
2019-02-12T12:05:09.037Z,83.44
2019-02-12T12:06:09.022Z,83.44
2019-02-12T12:07:08.979Z,83.44
2019-02-12T12:08:08.969Z,83.34
2019-02-12T12:09:08.965Z,82.68
2019-02-12T12:10:08.982Z,81.06
2019-02-12T12:11:08.961Z,80.96
2019-02-12T12:12:08.934Z,81.06
2019-02-12T12:13:08.923Z,81.73
2019-02-12T12:14:08.944Z,81.10
2019-02-12T12:15:08.962Z,80.63
2019-02-12T12:16:09.010Z,80.63
2019-02-12T12:17:08.928Z,80.40
2019-02-12T12:18:08.919Z,81.20
2019-02-12T12:19:08.918Z,81.06
2019-02-12T12:20:08.883Z,81.38
2019-02-12T12:21:08.870Z,81.06
2019-02-12T12:22:08.875Z,81.38
2019-02-12T12:23:08.863Z,81.16
2019-02-12T12:24:08.859Z,80.87
2019-02-12T12:25:08.848Z,81.29
2019-02-12T12:26:08.832Z,80.72
2019-02-12T12:27:08.807Z,80.05
2019-02-12T12:28:08.822Z,80.44
2019-02-12T12:29:08.809Z,78.72
2019-02-12T12:30:08.814Z,78.72
2019-02-12T12:31:08.798Z,78.82
2019-02-12T12:32:08.773Z,77.87
2019-02-12T12:33:08.766Z,77.17
2019-02-12T12:34:08.753Z,77.07
2019-02-12T12:35:08.739Z,77.26
2019-02-12T12:36:08.740Z,78.59
2019-02-12T12:37:08.759Z,79.83
2019-02-12T12:38:08.761Z,79.35
2019-02-12T12:39:08.709Z,78.40
2019-02-12T12:40:08.744Z,77.45
2019-02-12T12:41:08.703Z,75.74
2019-02-12T12:42:08.678Z,74.79
2019-02-12T12:43:08.721Z,75.17
2019-02-12T12:44:08.713Z,75.96
2019-02-12T12:45:08.700Z,75.26
2019-02-12T12:46:08.687Z,75.07
2019-02-12T12:47:08.641Z,75.07
2019-02-12T12:48:08.640Z,75.11
2019-02-12T12:49:08.662Z,74.51
2019-02-12T12:50:08.645Z,74.03
2019-02-12T12:51:08.610Z,73.36
2019-02-12T12:52:08.636Z,73.27
2019-02-12T12:53:08.589Z,72.89
2019-02-12T12:54:08.611Z,72.60
2019-02-12T12:55:08.580Z,72.32
2019-02-12T12:56:08.585Z,72.83
2019-02-12T12:57:08.587Z,73.02
2019-02-12T12:58:08.558Z,73.55
2019-02-12T12:59:08.547Z,73.59
2019-02-12T13:00:08.626Z,73.55
2019-02-12T13:01:08.526Z,74.12
2019-02-12T13:02:08.547Z,73.97
2019-02-12T13:03:08.541Z,73.88
2019-02-12T13:04:08.555Z,74.07
2019-02-12T13:05:08.518Z,74.35
2019-02-12T13:06:08.482Z,74.92
2019-02-12T13:07:08.480Z,74.51
2019-02-12T13:08:08.510Z,74.51
2019-02-12T13:09:08.485Z,74.69
2019-02-12T13:10:08.522Z,74.60
2019-02-12T13:11:08.477Z,74.31
2019-02-12T13:12:08.440Z,74.12
2019-02-12T13:13:08.480Z,73.93
2019-02-12T13:14:08.441Z,74.41
2019-02-12T13:15:08.484Z,73.93
2019-02-12T13:16:08.404Z,74.03
2019-02-12T13:17:08.421Z,74.41
2019-02-12T13:18:08.453Z,74.12
2019-02-12T13:19:08.544Z,74.41
2019-02-12T13:20:08.417Z,74.79
2019-02-12T13:21:08.376Z,74.12
2019-02-12T13:22:08.386Z,74.88